sensor_id;sensor_type;location;lat;lon;timestamp;temperature;humidity
75430;DHT22;64127;51.488;5.462;2022-11-15T00:02:23;10.10;99.70
75430;DHT22;64127;51.488;5.462;2022-11-15T00:04:55;10.20;99.90
75430;DHT22;64127;51.488;5.462;2022-11-15T00:07:27;10.20;99.90
75430;DHT22;64127;51.488;5.462;2022-11-15T00:10:19;10.20;99.90
75430;DHT22;64127;51.488;5.462;2022-11-15T00:12:51;10.30;99.90
75430;DHT22;64127;51.488;5.462;2022-11-15T00:15:23;10.30;99.90
75430;DHT22;64127;51.488;5.462;2022-11-15T00:17:55;10.30;99.90
75430;DHT22;64127;51.488;5.462;2022-11-15T00:20:27;10.30;99.90
75430;DHT22;64127;51.488;5.462;2022-11-15T00:22:59;10.40;99.90
75430;DHT22;64127;51.488;5.462;2022-11-15T00:25:32;10.40;99.90
75430;DHT22;64127;51.488;5.462;2022-11-15T00:28:04;10.40;99.90
75430;DHT22;64127;51.488;5.462;2022-11-15T00:30:36;10.40;99.90
75430;DHT22;64127;51.488;5.462;2022-11-15T00:33:08;10.50;99.90
75430;DHT22;64127;51.488;5.462;2022-11-15T00:35:41;10.50;99.90
75430;DHT22;64127;51.488;5.462;2022-11-15T00:38:13;10.50;99.90
75430;DHT22;64127;51.488;5.462;2022-11-15T00:40:45;10.50;99.90
75430;DHT22;64127;51.488;5.462;2022-11-15T00:43:17;10.60;99.90
75430;DHT22;64127;51.488;5.462;2022-11-15T00:45:49;10.60;99.90
75430;DHT22;64127;51.488;5.462;2022-11-15T00:48:21;10.60;99.90
75430;DHT22;64127;51.488;5.462;2022-11-15T00:50:53;10.70;99.90
75430;DHT22;64127;51.488;5.462;2022-11-15T00:53:25;10.70;99.90
75430;DHT22;64127;51.488;5.462;2022-11-15T00:55:57;10.70;99.90
75430;DHT22;64127;51.488;5.462;2022-11-15T00:58:29;10.70;99.90
75430;DHT22;64127;51.488;5.462;2022-11-15T01:01:08;10.80;99.90
75430;DHT22;64127;51.488;5.462;2022-11-15T01:03:42;10.80;99.90
75430;DHT22;64127;51.488;5.462;2022-11-15T01:06:14;10.80;99.90
75430;DHT22;64127;51.488;5.462;2022-11-15T01:08:46;10.80;99.90
75430;DHT22;64127;51.488;5.462;2022-11-15T01:11:18;10.80;99.90
75430;DHT22;64127;51.488;5.462;2022-11-15T01:13:50;10.80;99.90
75430;DHT22;64127;51.488;5.462;2022-11-15T01:16:21;10.80;99.90
75430;DHT22;64127;51.488;5.462;2022-11-15T01:18:53;10.90;99.90
75430;DHT22;64127;51.488;5.462;2022-11-15T01:21:25;10.90;99.90
75430;DHT22;64127;51.488;5.462;2022-11-15T01:23:57;10.90;99.90
75430;DHT22;64127;51.488;5.462;2022-11-15T01:26:29;10.90;99.90
75430;DHT22;64127;51.488;5.462;2022-11-15T01:29:01;10.90;99.90
75430;DHT22;64127;51.488;5.462;2022-11-15T01:31:33;10.90;99.90
75430;DHT22;64127;51.488;5.462;2022-11-15T01:34:05;11.00;99.90
75430;DHT22;64127;51.488;5.462;2022-11-15T01:36:37;11.00;99.90
75430;DHT22;64127;51.488;5.462;2022-11-15T01:39:09;11.00;99.90
75430;DHT22;64127;51.488;5.462;2022-11-15T01:41:41;11.00;99.90
75430;DHT22;64127;51.488;5.462;2022-11-15T01:47:17;11.00;99.90
75430;DHT22;64127;51.488;5.462;2022-11-15T01:52:32;11.10;99.90
75430;DHT22;64127;51.488;5.462;2022-11-15T01:57:45;11.10;99.90
75430;DHT22;64127;51.488;5.462;2022-11-15T02:00:19;11.10;99.90
75430;DHT22;64127;51.488;5.462;2022-11-15T02:02:51;11.20;99.90
75430;DHT22;64127;51.488;5.462;2022-11-15T02:05:23;11.20;99.90
75430;DHT22;64127;51.488;5.462;2022-11-15T02:07:55;11.30;99.90
75430;DHT22;64127;51.488;5.462;2022-11-15T02:10:28;11.30;99.90
75430;DHT22;64127;51.488;5.462;2022-11-15T02:13:00;11.30;99.90
75430;DHT22;64127;51.488;5.462;2022-11-15T02:15:40;11.40;99.90
75430;DHT22;64127;51.488;5.462;2022-11-15T02:18:52;11.40;99.90
75430;DHT22;64127;51.488;5.462;2022-11-15T02:28:20;11.50;99.90
75430;DHT22;64127;51.488;5.462;2022-11-15T02:31:10;11.50;99.90
75430;DHT22;64127;51.488;5.462;2022-11-15T02:37:07;11.60;99.90
75430;DHT22;64127;51.488;5.462;2022-11-15T02:39:54;11.60;99.90
75430;DHT22;64127;51.488;5.462;2022-11-15T02:42:50;11.70;99.90
75430;DHT22;64127;51.488;5.462;2022-11-15T02:45:49;11.70;99.90
75430;DHT22;64127;51.488;5.462;2022-11-15T02:48:25;11.70;99.90
75430;DHT22;64127;51.488;5.462;2022-11-15T02:50:58;11.70;99.90
75430;DHT22;64127;51.488;5.462;2022-11-15T02:53:32;11.80;99.90
75430;DHT22;64127;51.488;5.462;2022-11-15T02:56:04;11.80;99.90
75430;DHT22;64127;51.488;5.462;2022-11-15T03:02:04;11.80;99.90
75430;DHT22;64127;51.488;5.462;2022-11-15T03:07:42;11.90;99.90
75430;DHT22;64127;51.488;5.462;2022-11-15T03:17:00;11.90;99.90
75430;DHT22;64127;51.488;5.462;2022-11-15T03:19:44;11.90;99.90
75430;DHT22;64127;51.488;5.462;2022-11-15T03:22:21;11.90;99.90
75430;DHT22;64127;51.488;5.462;2022-11-15T03:25:00;11.90;99.90
75430;DHT22;64127;51.488;5.462;2022-11-15T03:27:40;11.90;99.90
75430;DHT22;64127;51.488;5.462;2022-11-15T03:30:15;12.00;99.90
75430;DHT22;64127;51.488;5.462;2022-11-15T03:32:55;12.00;99.90
75430;DHT22;64127;51.488;5.462;2022-11-15T03:35:38;12.00;99.90
75430;DHT22;64127;51.488;5.462;2022-11-15T03:38:25;12.00;99.90
75430;DHT22;64127;51.488;5.462;2022-11-15T03:41:04;12.10;99.90
75430;DHT22;64127;51.488;5.462;2022-11-15T03:44:06;12.10;99.90
75430;DHT22;64127;51.488;5.462;2022-11-15T03:46:47;12.10;99.90
75430;DHT22;64127;51.488;5.462;2022-11-15T03:49:35;12.10;99.90
75430;DHT22;64127;51.488;5.462;2022-11-15T03:52:10;12.10;99.90
75430;DHT22;64127;51.488;5.462;2022-11-15T03:54:56;12.20;99.90
75430;DHT22;64127;51.488;5.462;2022-11-15T03:57:28;12.10;99.90
75430;DHT22;64127;51.488;5.462;2022-11-15T04:00:00;12.20;99.90
75430;DHT22;64127;51.488;5.462;2022-11-15T04:02:32;12.20;99.90
75430;DHT22;64127;51.488;5.462;2022-11-15T04:05:04;12.20;99.90
75430;DHT22;64127;51.488;5.462;2022-11-15T04:07:37;12.20;99.90
75430;DHT22;64127;51.488;5.462;2022-11-15T04:10:10;12.20;99.90
75430;DHT22;64127;51.488;5.462;2022-11-15T04:12:44;12.20;99.90
75430;DHT22;64127;51.488;5.462;2022-11-15T04:15:21;12.20;99.90
75430;DHT22;64127;51.488;5.462;2022-11-15T04:17:56;12.30;99.90
75430;DHT22;64127;51.488;5.462;2022-11-15T04:20:30;12.20;99.90
75430;DHT22;64127;51.488;5.462;2022-11-15T04:23:22;12.30;99.90
75430;DHT22;64127;51.488;5.462;2022-11-15T04:26:18;12.30;99.90
75430;DHT22;64127;51.488;5.462;2022-11-15T04:28:52;12.30;99.90
75430;DHT22;64127;51.488;5.462;2022-11-15T04:31:43;12.30;99.90
75430;DHT22;64127;51.488;5.462;2022-11-15T04:34:15;12.30;99.90
75430;DHT22;64127;51.488;5.462;2022-11-15T04:36:47;12.30;99.90
75430;DHT22;64127;51.488;5.462;2022-11-15T04:39:38;12.30;99.90
75430;DHT22;64127;51.488;5.462;2022-11-15T04:42:13;12.30;99.90
75430;DHT22;64127;51.488;5.462;2022-11-15T04:44:45;12.30;99.90
75430;DHT22;64127;51.488;5.462;2022-11-15T04:47:17;12.30;99.90
75430;DHT22;64127;51.488;5.462;2022-11-15T04:49:48;12.30;99.90
75430;DHT22;64127;51.488;5.462;2022-11-15T04:52:20;12.30;99.90
75430;DHT22;64127;51.488;5.462;2022-11-15T04:54:52;12.40;99.90
75430;DHT22;64127;51.488;5.462;2022-11-15T04:57:24;12.40;99.90
75430;DHT22;64127;51.488;5.462;2022-11-15T04:59:56;12.40;99.90
75430;DHT22;64127;51.488;5.462;2022-11-15T05:02:28;12.40;99.90
75430;DHT22;64127;51.488;5.462;2022-11-15T05:05:20;12.40;99.90
75430;DHT22;64127;51.488;5.462;2022-11-15T05:07:52;12.30;99.90
75430;DHT22;64127;51.488;5.462;2022-11-15T05:10:24;12.30;99.90
75430;DHT22;64127;51.488;5.462;2022-11-15T05:12:56;12.40;99.90
75430;DHT22;64127;51.488;5.462;2022-11-15T05:15:28;12.40;99.90
75430;DHT22;64127;51.488;5.462;2022-11-15T05:18:00;12.40;99.90
75430;DHT22;64127;51.488;5.462;2022-11-15T05:20:32;12.40;99.90
75430;DHT22;64127;51.488;5.462;2022-11-15T05:23:04;12.40;99.90
75430;DHT22;64127;51.488;5.462;2022-11-15T05:25:36;12.40;99.90
75430;DHT22;64127;51.488;5.462;2022-11-15T05:28:09;12.40;99.90
75430;DHT22;64127;51.488;5.462;2022-11-15T05:30:40;12.40;99.90
75430;DHT22;64127;51.488;5.462;2022-11-15T05:33:12;12.40;99.90
75430;DHT22;64127;51.488;5.462;2022-11-15T05:35:53;12.40;99.90
75430;DHT22;64127;51.488;5.462;2022-11-15T05:38:28;12.50;99.90
75430;DHT22;64127;51.488;5.462;2022-11-15T05:41:01;12.50;99.90
75430;DHT22;64127;51.488;5.462;2022-11-15T05:43:36;12.50;99.90
75430;DHT22;64127;51.488;5.462;2022-11-15T05:46:11;12.40;99.90
75430;DHT22;64127;51.488;5.462;2022-11-15T05:48:48;12.50;99.90
75430;DHT22;64127;51.488;5.462;2022-11-15T05:51:22;12.50;99.90
75430;DHT22;64127;51.488;5.462;2022-11-15T05:53:56;12.50;99.90
75430;DHT22;64127;51.488;5.462;2022-11-15T05:56:30;12.50;99.90
75430;DHT22;64127;51.488;5.462;2022-11-15T05:59:02;12.50;99.90
75430;DHT22;64127;51.488;5.462;2022-11-15T06:01:35;12.50;99.90
75430;DHT22;64127;51.488;5.462;2022-11-15T06:04:07;12.50;99.90
75430;DHT22;64127;51.488;5.462;2022-11-15T06:06:39;12.50;99.90
75430;DHT22;64127;51.488;5.462;2022-11-15T06:09:11;12.50;99.90
75430;DHT22;64127;51.488;5.462;2022-11-15T06:11:43;12.50;99.90
75430;DHT22;64127;51.488;5.462;2022-11-15T06:14:15;12.50;99.90
75430;DHT22;64127;51.488;5.462;2022-11-15T06:16:47;12.60;99.90
75430;DHT22;64127;51.488;5.462;2022-11-15T06:19:18;12.50;99.90
75430;DHT22;64127;51.488;5.462;2022-11-15T06:21:50;12.50;99.90
75430;DHT22;64127;51.488;5.462;2022-11-15T06:24:22;12.50;99.90
75430;DHT22;64127;51.488;5.462;2022-11-15T06:26:54;12.60;99.90
75430;DHT22;64127;51.488;5.462;2022-11-15T06:29:26;12.50;99.90
75430;DHT22;64127;51.488;5.462;2022-11-15T06:31:58;12.60;99.90
75430;DHT22;64127;51.488;5.462;2022-11-15T06:34:30;12.60;99.90
75430;DHT22;64127;51.488;5.462;2022-11-15T06:37:02;12.60;99.90
75430;DHT22;64127;51.488;5.462;2022-11-15T06:39:34;12.60;99.90
75430;DHT22;64127;51.488;5.462;2022-11-15T06:42:08;12.60;99.90
75430;DHT22;64127;51.488;5.462;2022-11-15T06:44:40;12.60;99.90
75430;DHT22;64127;51.488;5.462;2022-11-15T06:47:12;12.60;99.90
75430;DHT22;64127;51.488;5.462;2022-11-15T06:49:44;12.60;99.90
75430;DHT22;64127;51.488;5.462;2022-11-15T06:52:16;12.60;99.90
75430;DHT22;64127;51.488;5.462;2022-11-15T06:54:50;12.60;99.90
75430;DHT22;64127;51.488;5.462;2022-11-15T06:57:21;12.60;99.90
75430;DHT22;64127;51.488;5.462;2022-11-15T06:59:53;12.60;99.90
75430;DHT22;64127;51.488;5.462;2022-11-15T07:02:25;12.60;99.90
75430;DHT22;64127;51.488;5.462;2022-11-15T07:04:57;12.60;99.90
75430;DHT22;64127;51.488;5.462;2022-11-15T07:07:29;12.60;99.90
75430;DHT22;64127;51.488;5.462;2022-11-15T07:10:01;12.60;99.90
75430;DHT22;64127;51.488;5.462;2022-11-15T07:12:33;12.60;99.90
75430;DHT22;64127;51.488;5.462;2022-11-15T07:15:06;12.50;99.90
75430;DHT22;64127;51.488;5.462;2022-11-15T07:17:38;12.60;99.90
75430;DHT22;64127;51.488;5.462;2022-11-15T07:20:11;12.60;99.90
75430;DHT22;64127;51.488;5.462;2022-11-15T07:22:44;12.50;99.90
75430;DHT22;64127;51.488;5.462;2022-11-15T07:25:16;12.50;99.90
75430;DHT22;64127;51.488;5.462;2022-11-15T07:27:55;12.50;99.90
75430;DHT22;64127;51.488;5.462;2022-11-15T07:30:28;12.50;99.90
75430;DHT22;64127;51.488;5.462;2022-11-15T07:33:00;12.50;99.90
75430;DHT22;64127;51.488;5.462;2022-11-15T07:35:33;12.50;99.90
75430;DHT22;64127;51.488;5.462;2022-11-15T07:38:05;12.50;99.90
75430;DHT22;64127;51.488;5.462;2022-11-15T07:40:36;12.50;99.90
75430;DHT22;64127;51.488;5.462;2022-11-15T07:43:08;12.50;99.90
75430;DHT22;64127;51.488;5.462;2022-11-15T07:45:45;12.50;99.90
75430;DHT22;64127;51.488;5.462;2022-11-15T07:48:17;12.50;99.90
75430;DHT22;64127;51.488;5.462;2022-11-15T07:50:49;12.50;99.90
75430;DHT22;64127;51.488;5.462;2022-11-15T07:53:21;12.50;99.90
75430;DHT22;64127;51.488;5.462;2022-11-15T07:55:53;12.50;99.90
75430;DHT22;64127;51.488;5.462;2022-11-15T07:58:26;12.50;99.90
75430;DHT22;64127;51.488;5.462;2022-11-15T08:00:58;12.50;99.90
75430;DHT22;64127;51.488;5.462;2022-11-15T08:03:33;12.50;99.90
75430;DHT22;64127;51.488;5.462;2022-11-15T08:06:06;12.50;99.90
75430;DHT22;64127;51.488;5.462;2022-11-15T08:08:38;12.60;99.90
75430;DHT22;64127;51.488;5.462;2022-11-15T08:11:10;12.60;99.90
75430;DHT22;64127;51.488;5.462;2022-11-15T08:13:42;12.60;99.90
75430;DHT22;64127;51.488;5.462;2022-11-15T08:16:14;12.60;99.90
75430;DHT22;64127;51.488;5.462;2022-11-15T08:18:46;12.60;99.90
75430;DHT22;64127;51.488;5.462;2022-11-15T08:21:20;12.60;99.90
75430;DHT22;64127;51.488;5.462;2022-11-15T08:23:52;12.60;99.90
75430;DHT22;64127;51.488;5.462;2022-11-15T08:26:24;12.50;99.90
75430;DHT22;64127;51.488;5.462;2022-11-15T08:29:00;12.60;99.90
75430;DHT22;64127;51.488;5.462;2022-11-15T08:31:32;12.60;99.90
75430;DHT22;64127;51.488;5.462;2022-11-15T08:34:05;12.60;99.90
75430;DHT22;64127;51.488;5.462;2022-11-15T08:36:37;12.60;99.90
75430;DHT22;64127;51.488;5.462;2022-11-15T08:39:16;12.60;99.90
75430;DHT22;64127;51.488;5.462;2022-11-15T08:41:48;12.70;99.90
75430;DHT22;64127;51.488;5.462;2022-11-15T08:44:20;12.80;99.90
75430;DHT22;64127;51.488;5.462;2022-11-15T08:46:52;12.90;99.90
75430;DHT22;64127;51.488;5.462;2022-11-15T08:49:24;13.00;99.90
75430;DHT22;64127;51.488;5.462;2022-11-15T08:51:56;13.10;99.90
75430;DHT22;64127;51.488;5.462;2022-11-15T08:54:28;13.30;99.90
75430;DHT22;64127;51.488;5.462;2022-11-15T08:57:00;13.30;99.90
75430;DHT22;64127;51.488;5.462;2022-11-15T08:59:32;13.40;99.90
75430;DHT22;64127;51.488;5.462;2022-11-15T09:02:04;13.30;99.90
75430;DHT22;64127;51.488;5.462;2022-11-15T09:04:37;13.40;99.90
75430;DHT22;64127;51.488;5.462;2022-11-15T09:07:12;13.30;99.90
75430;DHT22;64127;51.488;5.462;2022-11-15T09:09:45;13.30;99.90
75430;DHT22;64127;51.488;5.462;2022-11-15T09:12:17;13.30;99.90
75430;DHT22;64127;51.488;5.462;2022-11-15T09:14:49;13.30;99.90
75430;DHT22;64127;51.488;5.462;2022-11-15T09:17:21;13.30;99.90
75430;DHT22;64127;51.488;5.462;2022-11-15T09:19:55;13.30;99.90
75430;DHT22;64127;51.488;5.462;2022-11-15T09:22:27;13.30;99.90
75430;DHT22;64127;51.488;5.462;2022-11-15T09:25:00;13.50;99.90
75430;DHT22;64127;51.488;5.462;2022-11-15T09:27:32;13.60;99.90
75430;DHT22;64127;51.488;5.462;2022-11-15T09:30:04;13.80;99.90
75430;DHT22;64127;51.488;5.462;2022-11-15T09:32:37;14.00;99.90
75430;DHT22;64127;51.488;5.462;2022-11-15T09:35:10;14.20;99.90
75430;DHT22;64127;51.488;5.462;2022-11-15T09:37:42;14.30;99.90
75430;DHT22;64127;51.488;5.462;2022-11-15T09:40:16;14.30;99.90
75430;DHT22;64127;51.488;5.462;2022-11-15T09:48:55;14.80;99.90
75430;DHT22;64127;51.488;5.462;2022-11-15T09:51:41;14.80;99.90
75430;DHT22;64127;51.488;5.462;2022-11-15T09:54:32;14.90;99.90
75430;DHT22;64127;51.488;5.462;2022-11-15T09:57:45;15.00;99.90
75430;DHT22;64127;51.488;5.462;2022-11-15T10:00:40;15.10;99.90
75430;DHT22;64127;51.488;5.462;2022-11-15T10:03:29;15.20;99.90
75430;DHT22;64127;51.488;5.462;2022-11-15T10:06:08;15.20;99.90
75430;DHT22;64127;51.488;5.462;2022-11-15T10:11:36;15.50;99.90
75430;DHT22;64127;51.488;5.462;2022-11-15T10:14:14;15.60;99.90
75430;DHT22;64127;51.488;5.462;2022-11-15T10:19:52;15.80;99.90
75430;DHT22;64127;51.488;5.462;2022-11-15T10:22:45;15.80;99.90
75430;DHT22;64127;51.488;5.462;2022-11-15T10:25:23;16.00;99.80
75430;DHT22;64127;51.488;5.462;2022-11-15T10:28:14;16.00;99.20
75430;DHT22;64127;51.488;5.462;2022-11-15T10:30:57;15.90;99.20
75430;DHT22;64127;51.488;5.462;2022-11-15T10:33:37;15.50;99.00
75430;DHT22;64127;51.488;5.462;2022-11-15T10:36:19;15.10;98.80
75430;DHT22;64127;51.488;5.462;2022-11-15T10:38:54;14.80;99.00
75430;DHT22;64127;51.488;5.462;2022-11-15T10:46:40;14.40;99.00
75430;DHT22;64127;51.488;5.462;2022-11-15T10:49:20;14.50;99.10
75430;DHT22;64127;51.488;5.462;2022-11-15T10:54:37;14.70;98.80
75430;DHT22;64127;51.488;5.462;2022-11-15T10:57:26;15.10;98.70
75430;DHT22;64127;51.488;5.462;2022-11-15T11:05:36;16.10;97.40
75430;DHT22;64127;51.488;5.462;2022-11-15T11:10:56;16.70;96.70
75430;DHT22;64127;51.488;5.462;2022-11-15T11:13:39;16.90;96.00
75430;DHT22;64127;51.488;5.462;2022-11-15T11:22:26;17.50;95.20
75430;DHT22;64127;51.488;5.462;2022-11-15T11:25:22;17.50;95.00
75430;DHT22;64127;51.488;5.462;2022-11-15T11:36:36;16.40;94.80
75430;DHT22;64127;51.488;5.462;2022-11-15T11:45:24;16.50;94.50
75430;DHT22;64127;51.488;5.462;2022-11-15T11:51:33;16.20;94.70
75430;DHT22;64127;51.488;5.462;2022-11-15T11:54:45;16.10;94.70
75430;DHT22;64127;51.488;5.462;2022-11-15T12:00:24;16.00;94.80
75430;DHT22;64127;51.488;5.462;2022-11-15T12:03:25;16.10;94.70
75430;DHT22;64127;51.488;5.462;2022-11-15T12:06:33;16.10;94.40
75430;DHT22;64127;51.488;5.462;2022-11-15T12:12:15;16.10;94.40
75430;DHT22;64127;51.488;5.462;2022-11-15T12:15:24;16.00;94.40
75430;DHT22;64127;51.488;5.462;2022-11-15T12:18:00;16.10;94.40
75430;DHT22;64127;51.488;5.462;2022-11-15T12:20:36;16.30;94.30
75430;DHT22;64127;51.488;5.462;2022-11-15T12:23:20;16.50;93.90
75430;DHT22;64127;51.488;5.462;2022-11-15T12:26:19;16.60;93.80
75430;DHT22;64127;51.488;5.462;2022-11-15T12:28:58;16.40;93.70
75430;DHT22;64127;51.488;5.462;2022-11-15T12:31:43;16.40;93.80
75430;DHT22;64127;51.488;5.462;2022-11-15T12:36:54;16.40;93.90
75430;DHT22;64127;51.488;5.462;2022-11-15T12:40:32;16.40;93.70
75430;DHT22;64127;51.488;5.462;2022-11-15T12:45:46;16.50;93.50
75430;DHT22;64127;51.488;5.462;2022-11-15T12:53:31;16.30;92.80
75430;DHT22;64127;51.488;5.462;2022-11-15T12:58:59;16.10;92.70
75430;DHT22;64127;51.488;5.462;2022-11-15T13:06:59;15.90;92.60
75430;DHT22;64127;51.488;5.462;2022-11-15T13:17:54;15.50;92.50
75430;DHT22;64127;51.488;5.462;2022-11-15T13:20:31;15.40;92.50
75430;DHT22;64127;51.488;5.462;2022-11-15T13:23:13;15.30;92.60
75430;DHT22;64127;51.488;5.462;2022-11-15T13:26:06;15.30;92.60
75430;DHT22;64127;51.488;5.462;2022-11-15T13:28:48;15.30;92.70
75430;DHT22;64127;51.488;5.462;2022-11-15T13:31:29;15.20;92.70
75430;DHT22;64127;51.488;5.462;2022-11-15T13:34:29;15.20;92.80
75430;DHT22;64127;51.488;5.462;2022-11-15T13:39:54;15.10;92.80
75430;DHT22;64127;51.488;5.462;2022-11-15T13:42:28;15.10;92.90
75430;DHT22;64127;51.488;5.462;2022-11-15T13:45:03;15.10;92.90
75430;DHT22;64127;51.488;5.462;2022-11-15T13:47:36;15.10;92.90
75430;DHT22;64127;51.488;5.462;2022-11-15T13:50:13;15.00;92.90
75430;DHT22;64127;51.488;5.462;2022-11-15T13:52:46;15.10;93.00
75430;DHT22;64127;51.488;5.462;2022-11-15T13:55:22;15.00;92.90
75430;DHT22;64127;51.488;5.462;2022-11-15T13:58:01;15.00;93.00
75430;DHT22;64127;51.488;5.462;2022-11-15T14:00:42;14.90;93.00
75430;DHT22;64127;51.488;5.462;2022-11-15T14:08:40;14.90;93.10
75430;DHT22;64127;51.488;5.462;2022-11-15T14:11:33;14.80;93.10
75430;DHT22;64127;51.488;5.462;2022-11-15T14:14:13;14.80;93.10
75430;DHT22;64127;51.488;5.462;2022-11-15T14:16:49;14.80;93.10
75430;DHT22;64127;51.488;5.462;2022-11-15T14:25:03;14.80;93.30
75430;DHT22;64127;51.488;5.462;2022-11-15T14:30:46;14.70;93.30
75430;DHT22;64127;51.488;5.462;2022-11-15T14:33:31;14.70;93.40
75430;DHT22;64127;51.488;5.462;2022-11-15T14:36:27;14.70;93.50
75430;DHT22;64127;51.488;5.462;2022-11-15T14:38:58;14.70;93.60
75430;DHT22;64127;51.488;5.462;2022-11-15T14:41:35;14.70;93.70
75430;DHT22;64127;51.488;5.462;2022-11-15T14:44:10;14.70;93.80
75430;DHT22;64127;51.488;5.462;2022-11-15T14:46:43;14.70;94.00
75430;DHT22;64127;51.488;5.462;2022-11-15T14:49:15;14.70;94.00
75430;DHT22;64127;51.488;5.462;2022-11-15T14:51:47;14.70;94.00
75430;DHT22;64127;51.488;5.462;2022-11-15T14:54:19;14.70;94.00
75430;DHT22;64127;51.488;5.462;2022-11-15T14:56:51;14.70;94.00
75430;DHT22;64127;51.488;5.462;2022-11-15T14:59:23;14.70;94.30
75430;DHT22;64127;51.488;5.462;2022-11-15T15:01:55;14.70;94.10
75430;DHT22;64127;51.488;5.462;2022-11-15T15:04:27;14.70;94.20
75430;DHT22;64127;51.488;5.462;2022-11-15T15:06:59;14.70;94.30
75430;DHT22;64127;51.488;5.462;2022-11-15T15:09:32;14.60;94.30
75430;DHT22;64127;51.488;5.462;2022-11-15T15:12:08;14.60;94.30
75430;DHT22;64127;51.488;5.462;2022-11-15T15:14:53;14.60;94.40
75430;DHT22;64127;51.488;5.462;2022-11-15T15:17:25;14.60;94.50
75430;DHT22;64127;51.488;5.462;2022-11-15T15:19:57;14.60;94.50
75430;DHT22;64127;51.488;5.462;2022-11-15T15:22:29;14.60;94.60
75430;DHT22;64127;51.488;5.462;2022-11-15T15:25:02;14.60;94.70
75430;DHT22;64127;51.488;5.462;2022-11-15T15:27:35;14.60;94.80
75430;DHT22;64127;51.488;5.462;2022-11-15T15:30:08;14.60;94.80
75430;DHT22;64127;51.488;5.462;2022-11-15T15:32:40;14.60;94.90
75430;DHT22;64127;51.488;5.462;2022-11-15T15:35:14;14.60;94.90
75430;DHT22;64127;51.488;5.462;2022-11-15T15:37:48;14.60;95.00
75430;DHT22;64127;51.488;5.462;2022-11-15T15:40:22;14.60;95.10
75430;DHT22;64127;51.488;5.462;2022-11-15T15:42:56;14.60;95.10
75430;DHT22;64127;51.488;5.462;2022-11-15T15:45:28;14.60;95.20
75430;DHT22;64127;51.488;5.462;2022-11-15T15:48:01;14.60;95.40
75430;DHT22;64127;51.488;5.462;2022-11-15T15:50:34;14.60;95.40
75430;DHT22;64127;51.488;5.462;2022-11-15T15:53:07;14.60;95.40
75430;DHT22;64127;51.488;5.462;2022-11-15T15:55:39;14.60;95.40
75430;DHT22;64127;51.488;5.462;2022-11-15T15:58:11;14.60;95.50
75430;DHT22;64127;51.488;5.462;2022-11-15T16:00:43;14.60;95.50
75430;DHT22;64127;51.488;5.462;2022-11-15T16:03:15;14.50;95.50
75430;DHT22;64127;51.488;5.462;2022-11-15T16:05:49;14.60;95.60
75430;DHT22;64127;51.488;5.462;2022-11-15T16:08:23;14.60;95.70
75430;DHT22;64127;51.488;5.462;2022-11-15T16:10:58;14.60;95.70
75430;DHT22;64127;51.488;5.462;2022-11-15T16:13:30;14.60;95.80
75430;DHT22;64127;51.488;5.462;2022-11-15T16:16:02;14.50;95.80
75430;DHT22;64127;51.488;5.462;2022-11-15T16:18:33;14.50;95.90
75430;DHT22;64127;51.488;5.462;2022-11-15T16:21:07;14.50;96.00
75430;DHT22;64127;51.488;5.462;2022-11-15T16:23:40;14.50;96.50
75430;DHT22;64127;51.488;5.462;2022-11-15T16:26:25;14.50;96.20
75430;DHT22;64127;51.488;5.462;2022-11-15T16:28:59;14.50;96.50
75430;DHT22;64127;51.488;5.462;2022-11-15T16:31:31;14.40;96.60
75430;DHT22;64127;51.488;5.462;2022-11-15T16:34:03;14.40;96.80
75430;DHT22;64127;51.488;5.462;2022-11-15T16:36:35;14.40;97.00
75430;DHT22;64127;51.488;5.462;2022-11-15T16:39:10;14.30;97.30
75430;DHT22;64127;51.488;5.462;2022-11-15T16:41:45;14.30;97.50
75430;DHT22;64127;51.488;5.462;2022-11-15T16:44:18;14.30;97.70
75430;DHT22;64127;51.488;5.462;2022-11-15T16:46:50;14.30;97.90
75430;DHT22;64127;51.488;5.462;2022-11-15T16:49:22;14.20;98.10
75430;DHT22;64127;51.488;5.462;2022-11-15T16:51:55;14.20;98.70
75430;DHT22;64127;51.488;5.462;2022-11-15T16:54:27;14.20;98.40
75430;DHT22;64127;51.488;5.462;2022-11-15T16:56:58;14.20;98.70
75430;DHT22;64127;51.488;5.462;2022-11-15T16:59:30;14.10;98.80
75430;DHT22;64127;51.488;5.462;2022-11-15T17:02:11;14.10;99.00
75430;DHT22;64127;51.488;5.462;2022-11-15T17:04:43;14.10;99.20
75430;DHT22;64127;51.488;5.462;2022-11-15T17:07:15;14.10;99.40
75430;DHT22;64127;51.488;5.462;2022-11-15T17:09:47;14.00;99.50
75430;DHT22;64127;51.488;5.462;2022-11-15T17:12:19;14.00;99.60
75430;DHT22;64127;51.488;5.462;2022-11-15T17:14:51;14.00;99.80
75430;DHT22;64127;51.488;5.462;2022-11-15T17:17:23;14.00;99.90
75430;DHT22;64127;51.488;5.462;2022-11-15T17:19:57;13.90;99.90
75430;DHT22;64127;51.488;5.462;2022-11-15T17:22:29;13.90;99.90
75430;DHT22;64127;51.488;5.462;2022-11-15T17:25:02;13.90;99.90
75430;DHT22;64127;51.488;5.462;2022-11-15T17:27:34;13.90;99.90
75430;DHT22;64127;51.488;5.462;2022-11-15T17:30:07;13.80;99.90
75430;DHT22;64127;51.488;5.462;2022-11-15T17:32:41;13.80;99.90
75430;DHT22;64127;51.488;5.462;2022-11-15T17:35:13;13.80;99.90
75430;DHT22;64127;51.488;5.462;2022-11-15T17:37:46;13.80;99.90
75430;DHT22;64127;51.488;5.462;2022-11-15T17:40:19;13.70;99.90
75430;DHT22;64127;51.488;5.462;2022-11-15T17:42:50;13.70;99.90
75430;DHT22;64127;51.488;5.462;2022-11-15T17:45:23;13.70;99.90
75430;DHT22;64127;51.488;5.462;2022-11-15T17:47:55;13.60;99.90
75430;DHT22;64127;51.488;5.462;2022-11-15T17:50:27;13.60;99.90
75430;DHT22;64127;51.488;5.462;2022-11-15T17:52:59;13.60;99.90
75430;DHT22;64127;51.488;5.462;2022-11-15T17:55:31;13.60;99.90
75430;DHT22;64127;51.488;5.462;2022-11-15T17:58:03;13.60;99.90
75430;DHT22;64127;51.488;5.462;2022-11-15T18:00:35;13.60;99.90
75430;DHT22;64127;51.488;5.462;2022-11-15T18:03:08;13.50;99.90
75430;DHT22;64127;51.488;5.462;2022-11-15T18:05:40;13.50;99.90
75430;DHT22;64127;51.488;5.462;2022-11-15T18:08:15;13.50;99.90
75430;DHT22;64127;51.488;5.462;2022-11-15T18:10:49;13.50;99.90
75430;DHT22;64127;51.488;5.462;2022-11-15T18:13:21;13.50;99.90
75430;DHT22;64127;51.488;5.462;2022-11-15T18:15:53;13.50;99.90
75430;DHT22;64127;51.488;5.462;2022-11-15T18:18:33;13.50;99.90
75430;DHT22;64127;51.488;5.462;2022-11-15T18:21:10;13.50;99.90
75430;DHT22;64127;51.488;5.462;2022-11-15T18:23:47;13.40;99.90
75430;DHT22;64127;51.488;5.462;2022-11-15T18:26:25;13.50;99.90
75430;DHT22;64127;51.488;5.462;2022-11-15T18:29:03;13.40;99.90
75430;DHT22;64127;51.488;5.462;2022-11-15T18:31:35;13.50;99.90
75430;DHT22;64127;51.488;5.462;2022-11-15T18:34:07;13.40;99.90
75430;DHT22;64127;51.488;5.462;2022-11-15T18:36:40;13.40;99.90
75430;DHT22;64127;51.488;5.462;2022-11-15T18:39:13;13.50;99.90